createdAt,value
2023-05-19T00:00:23.125Z,46.40
2023-05-19T00:01:23.947Z,46.38
2023-05-19T00:02:24.124Z,46.38
2023-05-19T00:03:24.222Z,46.39
2023-05-19T00:04:24.059Z,46.38
2023-05-19T00:05:24.110Z,46.39
2023-05-19T00:06:23.416Z,46.38
2023-05-19T00:07:23.163Z,46.40
2023-05-19T00:08:24.122Z,46.38
2023-05-19T00:09:23.317Z,46.38
2023-05-19T00:10:24.328Z,46.37
2023-05-19T00:11:23.222Z,46.39
2023-05-19T00:12:24.214Z,46.40
2023-05-19T00:13:23.238Z,46.38
2023-05-19T00:14:24.537Z,46.40
2023-05-19T00:15:24.499Z,46.39
2023-05-19T00:16:23.599Z,46.40
2023-05-19T00:17:24.307Z,46.43
2023-05-19T00:18:24.606Z,46.40
2023-05-19T00:19:23.391Z,46.39
2023-05-19T00:20:24.569Z,46.40
2023-05-19T00:21:24.577Z,46.39
2023-05-19T00:22:23.330Z,46.39
2023-05-19T00:23:24.521Z,46.41
2023-05-19T00:24:23.348Z,46.38
2023-05-19T00:25:24.463Z,46.39
2023-05-19T00:26:23.450Z,46.40
2023-05-19T00:27:24.619Z,46.37
2023-05-19T00:28:23.732Z,46.39
2023-05-19T00:29:24.709Z,46.40
2023-05-19T00:30:24.502Z,46.40
2023-05-19T00:31:24.803Z,46.39
2023-05-19T00:32:24.674Z,46.40
2023-05-19T00:33:23.855Z,46.38
2023-05-19T00:34:24.798Z,46.38
2023-05-19T00:35:23.924Z,46.39
2023-05-19T00:36:23.669Z,46.40
2023-05-19T00:37:24.972Z,46.38
2023-05-19T00:38:24.791Z,46.39
2023-05-19T00:39:23.741Z,46.39
2023-05-19T00:40:24.029Z,46.41
2023-05-19T00:41:24.921Z,46.40
2023-05-19T00:42:23.919Z,46.41
2023-05-19T00:43:23.926Z,46.43
2023-05-19T00:44:23.784Z,46.40
2023-05-19T00:45:24.826Z,46.38
2023-05-19T00:46:23.972Z,46.41
2023-05-19T00:47:24.915Z,46.44
2023-05-19T00:48:24.006Z,46.42
2023-05-19T00:49:24.997Z,46.39
2023-05-19T00:50:25.043Z,46.41
2023-05-19T00:51:24.075Z,46.38
2023-05-19T00:52:25.034Z,46.39
2023-05-19T00:53:25.091Z,46.39
2023-05-19T00:54:23.926Z,46.42
2023-05-19T00:55:24.111Z,46.38
2023-05-19T00:56:23.979Z,46.40
2023-05-19T00:57:24.946Z,46.42
2023-05-19T00:58:25.039Z,46.41
2023-05-19T00:59:23.950Z,46.40
2023-05-19T01:00:24.940Z,46.40
2023-05-19T01:01:24.160Z,46.40
2023-05-19T01:02:25.455Z,46.39
2023-05-19T01:03:24.058Z,46.38
2023-05-19T01:04:25.153Z,46.41
2023-05-19T01:05:24.262Z,46.39
2023-05-19T01:06:24.140Z,46.39
2023-05-19T01:07:24.370Z,46.39
2023-05-19T01:08:24.201Z,46.39
2023-05-19T01:09:24.985Z,46.40
2023-05-19T01:10:25.002Z,46.38
2023-05-19T01:11:25.253Z,46.39
2023-05-19T01:12:24.041Z,46.37
2023-05-19T01:13:24.314Z,46.40
2023-05-19T01:14:25.282Z,46.40
2023-05-19T01:15:24.107Z,46.40
2023-05-19T01:16:24.326Z,46.37
2023-05-19T01:17:25.460Z,46.39
2023-05-19T01:18:25.373Z,46.39
2023-05-19T01:19:25.573Z,46.39
2023-05-19T01:20:24.199Z,46.39
2023-05-19T01:21:24.250Z,46.39
2023-05-19T01:22:24.204Z,46.38
2023-05-19T01:23:24.480Z,46.38
2023-05-19T01:24:24.220Z,46.38
2023-05-19T01:25:24.256Z,46.40
2023-05-19T01:26:24.283Z,46.39
2023-05-19T01:27:25.387Z,46.37
2023-05-19T01:28:24.365Z,46.38
2023-05-19T01:29:25.394Z,46.36
2023-05-19T01:30:25.624Z,46.38
2023-05-19T01:31:24.563Z,46.38
2023-05-19T01:32:25.434Z,46.37
2023-05-19T01:33:24.619Z,46.38
2023-05-19T01:34:24.437Z,46.38
2023-05-19T01:35:24.582Z,46.38
2023-05-19T01:36:24.500Z,46.36
2023-05-19T01:37:24.397Z,46.40
2023-05-19T01:38:24.626Z,46.38
2023-05-19T01:39:25.579Z,46.35
2023-05-19T01:40:24.668Z,46.38
2023-05-19T01:41:24.390Z,46.38
2023-05-19T01:42:25.376Z,46.38
2023-05-19T01:43:24.383Z,46.37
2023-05-19T01:44:25.411Z,46.37
2023-05-19T01:45:24.375Z,46.40
2023-05-19T01:46:25.745Z,46.39
2023-05-19T01:47:24.580Z,46.38
2023-05-19T01:48:24.494Z,46.36
2023-05-19T01:49:25.094Z,46.36
2023-05-19T01:50:24.680Z,46.36
2023-05-19T01:51:24.719Z,46.38
2023-05-19T01:52:24.775Z,46.36
2023-05-19T01:53:25.756Z,46.39
2023-05-19T01:54:24.571Z,46.39
2023-05-19T01:55:25.597Z,46.37
2023-05-19T01:56:24.501Z,46.35
2023-05-19T01:57:24.501Z,46.39
2023-05-19T01:58:24.795Z,46.39
2023-05-19T01:59:25.771Z,46.42
2023-05-19T02:00:25.582Z,46.39
2023-05-19T02:01:25.804Z,46.36
2023-05-19T02:02:25.832Z,46.38
2023-05-19T02:03:25.713Z,46.39
2023-05-19T02:04:24.854Z,46.36
2023-05-19T02:05:24.642Z,46.37
2023-05-19T02:06:24.652Z,46.41
2023-05-19T02:07:25.832Z,46.39
2023-05-19T02:08:25.631Z,46.36
2023-05-19T02:09:24.747Z,46.38
2023-05-19T02:10:25.886Z,46.36
2023-05-19T02:11:25.651Z,46.38
2023-05-19T02:12:24.637Z,46.37
2023-05-19T02:13:25.938Z,46.35
2023-05-19T02:14:25.710Z,46.37
2023-05-19T02:15:24.618Z,46.38
2023-05-19T02:16:24.726Z,46.36
2023-05-19T02:17:24.908Z,46.39
2023-05-19T02:18:25.775Z,46.38
2023-05-19T02:19:24.730Z,46.40
2023-05-19T02:20:24.719Z,46.37
2023-05-19T02:21:24.621Z,46.37
2023-05-19T02:22:24.691Z,46.40
2023-05-19T02:23:25.998Z,46.37
2023-05-19T02:24:24.905Z,46.37
2023-05-19T02:25:24.751Z,46.37
2023-05-19T02:26:24.939Z,46.36
2023-05-19T02:27:26.230Z,46.38
2023-05-19T02:28:26.051Z,46.37
2023-05-19T02:29:25.037Z,46.36
2023-05-19T02:30:24.824Z,46.39
2023-05-19T02:31:24.930Z,46.38
2023-05-19T02:32:25.004Z,46.36
2023-05-19T02:33:26.228Z,46.38
2023-05-19T02:34:25.044Z,46.40
2023-05-19T02:35:26.266Z,46.37
2023-05-19T02:36:26.305Z,46.39
2023-05-19T02:37:25.093Z,46.36
2023-05-19T02:38:25.382Z,46.37
2023-05-19T02:39:26.070Z,46.35
2023-05-19T02:40:26.075Z,46.37
2023-05-19T02:41:25.056Z,46.36
2023-05-19T02:42:25.187Z,46.35
2023-05-19T02:43:25.143Z,46.38
2023-05-19T02:44:25.262Z,46.37
2023-05-19T02:45:25.256Z,46.37
2023-05-19T02:46:25.231Z,46.39
2023-05-19T02:47:25.376Z,46.39
2023-05-19T02:48:25.135Z,46.36
2023-05-19T02:49:25.263Z,46.37
2023-05-19T02:50:26.227Z,46.40
2023-05-19T02:51:26.247Z,46.37
2023-05-19T02:52:25.136Z,46.40
2023-05-19T02:53:25.384Z,46.37
2023-05-19T02:54:26.340Z,46.34
2023-05-19T02:55:25.194Z,46.34
2023-05-19T02:56:26.364Z,46.36
2023-05-19T02:57:26.230Z,46.41
2023-05-19T02:58:25.506Z,46.39
2023-05-19T02:59:25.787Z,46.39
2023-05-19T03:00:25.190Z,46.37
2023-05-19T03:01:26.419Z,46.38
2023-05-19T03:02:25.188Z,46.38
2023-05-19T03:03:25.559Z,46.38
2023-05-19T03:04:26.247Z,46.40
2023-05-19T03:05:25.223Z,46.36
2023-05-19T03:06:26.293Z,46.38
2023-05-19T03:07:25.449Z,46.36
2023-05-19T03:08:26.228Z,46.39
2023-05-19T03:09:25.279Z,46.38
2023-05-19T03:10:25.480Z,46.39
2023-05-19T03:11:25.235Z,46.37
2023-05-19T03:12:26.451Z,46.38
2023-05-19T03:13:25.559Z,46.36
2023-05-19T03:14:26.228Z,46.37
2023-05-19T03:15:25.277Z,46.39
2023-05-19T03:16:25.391Z,46.35
2023-05-19T03:17:26.429Z,46.36
2023-05-19T03:18:26.468Z,46.37
2023-05-19T03:19:25.365Z,46.37
2023-05-19T03:20:25.303Z,46.36
2023-05-19T03:21:25.265Z,46.35
2023-05-19T03:22:26.283Z,46.34
2023-05-19T03:23:26.493Z,46.35
2023-05-19T03:24:25.264Z,46.38
2023-05-19T03:25:26.264Z,46.35
2023-05-19T03:26:25.400Z,46.35
2023-05-19T03:27:26.561Z,46.33
2023-05-19T03:28:25.401Z,46.35
2023-05-19T03:29:26.262Z,46.36
2023-05-19T03:30:25.295Z,46.35
2023-05-19T03:31:25.401Z,46.37
2023-05-19T03:32:25.338Z,46.37
2023-05-19T03:33:25.399Z,46.36
2023-05-19T03:34:25.296Z,46.37
2023-05-19T03:35:25.576Z,46.34
2023-05-19T03:36:25.626Z,46.36
2023-05-19T03:37:26.802Z,46.35
2023-05-19T03:38:25.851Z,46.35
2023-05-19T03:39:26.578Z,46.37
2023-05-19T03:40:25.811Z,46.34
2023-05-19T03:41:26.733Z,46.37
2023-05-19T03:42:26.576Z,46.35
2023-05-19T03:43:25.857Z,46.34
2023-05-19T03:44:26.537Z,46.39
2023-05-19T03:45:26.746Z,46.38
2023-05-19T03:46:25.705Z,46.36
2023-05-19T03:47:25.893Z,46.38
2023-05-19T03:48:25.910Z,46.36
2023-05-19T03:49:25.703Z,46.36
2023-05-19T03:50:27.073Z,46.38
2023-05-19T03:51:26.031Z,46.37
2023-05-19T03:52:25.880Z,46.38
2023-05-19T03:53:25.847Z,46.35
2023-05-19T03:54:25.928Z,46.34
2023-05-19T03:55:26.023Z,46.35
2023-05-19T03:56:26.016Z,46.37
2023-05-19T03:57:27.148Z,46.35
2023-05-19T03:58:26.024Z,46.39
2023-05-19T03:59:27.041Z,46.37
2023-05-19T04:00:26.016Z,46.35
2023-05-19T04:01:26.034Z,46.34
2023-05-19T04:02:26.118Z,46.34
2023-05-19T04:03:27.181Z,46.32
2023-05-19T04:04:26.101Z,46.35
2023-05-19T04:05:26.028Z,46.36
2023-05-19T04:06:27.063Z,46.36
2023-05-19T04:07:27.037Z,46.35
2023-05-19T04:08:26.071Z,46.31
2023-05-19T04:09:27.050Z,46.32
2023-05-19T04:10:26.070Z,46.34
2023-05-19T04:11:26.294Z,46.34
2023-05-19T04:12:26.049Z,46.33
2023-05-19T04:13:26.234Z,46.32
2023-05-19T04:14:26.061Z,46.34
2023-05-19T04:15:27.044Z,46.34
2023-05-19T04:16:26.054Z,46.33
2023-05-19T04:17:27.132Z,46.32
2023-05-19T04:18:29.052Z,46.36
2023-05-19T04:19:27.116Z,46.32
2023-05-19T04:20:26.034Z,46.34
2023-05-19T04:21:27.031Z,46.33
2023-05-19T04:22:26.017Z,46.35
2023-05-19T04:23:27.033Z,46.29
2023-05-19T04:24:26.014Z,46.34
2023-05-19T04:25:26.010Z,46.30
2023-05-19T04:26:27.001Z,46.32
2023-05-19T04:27:26.988Z,46.33
2023-05-19T04:28:25.995Z,46.32
2023-05-19T04:29:25.992Z,46.33
2023-05-19T04:30:26.976Z,46.31
2023-05-19T04:31:27.024Z,46.31
2023-05-19T04:32:27.010Z,46.30
2023-05-19T04:33:26.947Z,46.31
2023-05-19T04:34:25.936Z,46.31
2023-05-19T04:35:25.963Z,46.32
2023-05-19T04:36:25.934Z,46.31
2023-05-19T04:37:25.982Z,46.27
2023-05-19T04:38:25.925Z,46.31
2023-05-19T04:39:26.964Z,46.33
2023-05-19T04:40:25.946Z,46.31
2023-05-19T04:41:25.903Z,46.31
2023-05-19T04:42:25.905Z,46.33
2023-05-19T04:43:26.901Z,46.32
2023-05-19T04:44:25.885Z,46.30
2023-05-19T04:45:25.905Z,46.30
2023-05-19T04:46:26.881Z,46.30
2023-05-19T04:47:26.900Z,46.29
2023-05-19T04:48:26.852Z,46.30
2023-05-19T04:49:26.839Z,46.32
2023-05-19T04:50:25.827Z,46.31
2023-05-19T04:51:26.856Z,46.29
2023-05-19T04:52:25.828Z,46.29
2023-05-19T04:53:26.835Z,46.32
2023-05-19T04:54:25.824Z,46.31
2023-05-19T04:55:26.812Z,46.28
2023-05-19T04:56:26.795Z,46.31
2023-05-19T04:57:25.783Z,46.32
2023-05-19T04:58:26.778Z,46.32
2023-05-19T04:59:25.788Z,46.29
2023-05-19T05:00:26.775Z,46.27
2023-05-19T05:01:25.799Z,46.28
2023-05-19T05:02:25.845Z,46.26
2023-05-19T05:03:25.820Z,46.29
2023-05-19T05:04:25.744Z,46.30
2023-05-19T05:05:26.829Z,46.30
2023-05-19T05:06:26.727Z,46.27
2023-05-19T05:07:26.740Z,46.31
2023-05-19T05:08:25.718Z,46.28
2023-05-19T05:09:26.687Z,46.29
2023-05-19T05:10:26.690Z,46.29
2023-05-19T05:11:25.692Z,46.29
2023-05-19T05:12:26.670Z,46.26
2023-05-19T05:13:26.682Z,46.29
2023-05-19T05:14:25.672Z,46.26
2023-05-19T05:15:26.707Z,46.27
2023-05-19T05:16:25.675Z,46.27
2023-05-19T05:17:26.687Z,46.25
2023-05-19T05:18:26.653Z,46.27
2023-05-19T05:19:25.711Z,46.24
2023-05-19T05:20:25.695Z,46.23
2023-05-19T05:21:26.606Z,46.23
2023-05-19T05:22:25.668Z,46.25
2023-05-19T05:23:25.649Z,46.24
2023-05-19T05:24:25.593Z,46.26
2023-05-19T05:25:26.583Z,46.24
2023-05-19T05:26:25.570Z,46.25
2023-05-19T05:27:26.573Z,46.23
2023-05-19T05:28:25.571Z,46.24
2023-05-19T05:29:25.547Z,46.23
2023-05-19T05:30:25.555Z,46.23
2023-05-19T05:31:26.552Z,46.25
2023-05-19T05:32:25.809Z,46.23
2023-05-19T05:33:25.642Z,46.22
2023-05-19T05:34:25.520Z,46.23
2023-05-19T05:35:25.538Z,46.22
2023-05-19T05:36:25.627Z,46.22
2023-05-19T05:37:26.509Z,46.23
2023-05-19T05:38:25.554Z,46.20
2023-05-19T05:39:25.585Z,46.22
2023-05-19T05:40:25.488Z,46.18
2023-05-19T05:41:25.483Z,46.23
2023-05-19T05:42:27.075Z,46.20
2023-05-19T05:43:25.457Z,46.22
2023-05-19T05:44:25.451Z,46.21
2023-05-19T05:45:26.456Z,46.22
2023-05-19T05:46:26.560Z,46.19
2023-05-19T05:47:26.546Z,46.21
2023-05-19T05:48:25.482Z,46.19
2023-05-19T05:49:25.435Z,46.18
2023-05-19T05:50:25.473Z,46.19
2023-05-19T05:51:26.439Z,46.19
2023-05-19T05:52:25.445Z,46.16
2023-05-19T05:53:26.546Z,46.18
2023-05-19T05:54:25.395Z,46.16
2023-05-19T05:55:25.465Z,46.19
2023-05-19T05:56:25.380Z,46.15
2023-05-19T05:57:26.378Z,46.18
2023-05-19T05:58:26.376Z,46.15
2023-05-19T05:59:26.382Z,46.19
2023-05-19T06:00:26.356Z,46.18
2023-05-19T06:01:26.368Z,46.16
2023-05-19T06:02:25.446Z,46.16
2023-05-19T06:03:26.375Z,46.14
2023-05-19T06:04:26.355Z,46.13
2023-05-19T06:05:26.411Z,46.13
2023-05-19T06:06:25.325Z,46.13
2023-05-19T06:07:26.419Z,46.11
2023-05-19T06:08:25.378Z,46.18
2023-05-19T06:09:26.516Z,46.13
2023-05-19T06:10:26.372Z,46.13
2023-05-19T06:11:25.300Z,46.10
2023-05-19T06:12:25.263Z,46.12
2023-05-19T06:13:26.281Z,46.15
2023-05-19T06:14:25.291Z,46.09
2023-05-19T06:15:26.349Z,46.11
2023-05-19T06:16:25.277Z,46.08
2023-05-19T06:17:26.307Z,46.10
2023-05-19T06:18:27.822Z,46.11
2023-05-19T06:19:25.517Z,46.10
2023-05-19T06:20:26.353Z,46.11
2023-05-19T06:21:25.332Z,46.08
2023-05-19T06:22:25.328Z,46.07
2023-05-19T06:23:25.462Z,46.07
2023-05-19T06:24:26.399Z,46.10
2023-05-19T06:25:25.358Z,46.08
2023-05-19T06:26:26.360Z,46.09
2023-05-19T06:27:26.460Z,46.05
2023-05-19T06:28:26.374Z,46.06
2023-05-19T06:29:25.655Z,46.04
2023-05-19T06:30:25.474Z,46.03
2023-05-19T06:31:25.602Z,46.04
2023-05-19T06:32:25.463Z,46.02
2023-05-19T06:33:28.145Z,46.03
2023-05-19T06:34:25.444Z,46.05
2023-05-19T06:35:25.434Z,46.02
2023-05-19T06:36:26.415Z,46.02
2023-05-19T06:37:26.541Z,46.01
2023-05-19T06:38:25.427Z,45.99
2023-05-19T06:39:25.422Z,46.00
2023-05-19T06:40:26.605Z,45.99
2023-05-19T06:41:25.544Z,45.96
2023-05-19T06:42:25.478Z,45.97
2023-05-19T06:43:25.400Z,45.95
2023-05-19T06:44:25.448Z,45.93
2023-05-19T06:45:26.599Z,45.92
2023-05-19T06:46:25.568Z,45.93
2023-05-19T06:47:25.574Z,45.97
2023-05-19T06:48:26.340Z,45.94
2023-05-19T06:49:26.341Z,45.99
2023-05-19T06:50:25.320Z,45.98
2023-05-19T06:51:25.378Z,45.99
2023-05-19T06:52:25.316Z,45.97
2023-05-19T06:53:26.309Z,45.99
2023-05-19T06:54:25.552Z,45.98
2023-05-19T06:55:26.295Z,45.97
2023-05-19T06:56:26.503Z,46.00
2023-05-19T06:57:26.291Z,45.97
2023-05-19T06:58:26.275Z,45.97
2023-05-19T06:59:25.303Z,45.98
2023-05-19T07:00:26.349Z,46.01
2023-05-19T07:01:25.287Z,45.97
2023-05-19T07:02:25.360Z,46.00
2023-05-19T07:03:26.331Z,46.00
2023-05-19T07:04:25.238Z,46.01
2023-05-19T07:05:26.227Z,45.96
2023-05-19T07:06:26.224Z,45.97
2023-05-19T07:07:26.208Z,45.99
2023-05-19T07:08:26.206Z,45.98
2023-05-19T07:09:25.236Z,45.99
2023-05-19T07:10:26.234Z,45.98
2023-05-19T07:11:26.188Z,46.00
2023-05-19T07:12:25.171Z,45.98
2023-05-19T07:13:27.543Z,45.99
2023-05-19T07:14:25.238Z,46.00
2023-05-19T07:15:26.264Z,45.98
2023-05-19T07:16:26.284Z,45.95
2023-05-19T07:17:26.335Z,45.95
2023-05-19T07:18:26.393Z,45.95
2023-05-19T07:19:26.428Z,45.95
2023-05-19T07:20:25.499Z,45.95
2023-05-19T07:21:25.341Z,45.95
2023-05-19T07:22:25.313Z,45.95
2023-05-19T07:23:25.348Z,45.93
2023-05-19T07:24:26.345Z,45.93
2023-05-19T07:25:26.349Z,45.94
2023-05-19T07:26:25.469Z,45.91
2023-05-19T07:27:25.411Z,45.91
2023-05-19T07:28:26.553Z,45.89
2023-05-19T07:29:25.467Z,45.88
2023-05-19T07:30:25.533Z,45.87
2023-05-19T07:31:26.534Z,45.90
2023-05-19T07:32:26.613Z,45.81
2023-05-19T07:33:26.563Z,45.86
2023-05-19T07:34:25.639Z,45.82
2023-05-19T07:35:25.758Z,45.83
2023-05-19T07:36:25.684Z,45.78
2023-05-19T07:37:26.730Z,45.74
2023-05-19T07:38:26.766Z,45.78
2023-05-19T07:39:26.864Z,45.73
2023-05-19T07:40:26.034Z,45.69
2023-05-19T07:41:26.143Z,45.72
2023-05-19T07:42:26.938Z,45.67
2023-05-19T07:43:26.955Z,45.77
2023-05-19T07:44:26.029Z,45.61
2023-05-19T07:45:27.052Z,45.71
2023-05-19T07:46:26.240Z,45.58
2023-05-19T07:47:26.292Z,45.61
2023-05-19T07:48:27.190Z,45.64
2023-05-19T07:49:27.213Z,45.59
2023-05-19T07:50:27.271Z,45.60
2023-05-19T07:51:27.313Z,45.61
2023-05-19T07:52:26.367Z,45.60
2023-05-19T07:53:27.408Z,45.59
2023-05-19T07:54:27.450Z,45.58
2023-05-19T07:55:27.501Z,45.55
2023-05-19T07:56:27.552Z,45.57
2023-05-19T07:57:27.601Z,45.51
2023-05-19T07:58:26.652Z,45.50
2023-05-19T07:59:27.688Z,45.49
2023-05-19T08:00:27.714Z,45.48
2023-05-19T08:01:26.785Z,45.42
2023-05-19T08:02:26.899Z,45.38
2023-05-19T08:03:27.028Z,45.40
2023-05-19T08:04:27.161Z,45.41
2023-05-19T08:05:27.963Z,45.40
2023-05-19T08:06:27.970Z,45.39
2023-05-19T08:07:27.135Z,45.37
2023-05-19T08:08:27.309Z,45.36
2023-05-19T08:09:28.097Z,45.35
2023-05-19T08:10:27.280Z,45.35
2023-05-19T08:11:28.191Z,45.34
2023-05-19T08:12:27.188Z,45.32
2023-05-19T08:13:27.259Z,45.34
2023-05-19T08:14:28.343Z,45.31
2023-05-19T08:15:27.432Z,45.29
2023-05-19T08:16:27.436Z,45.31
2023-05-19T08:17:27.516Z,45.32
2023-05-19T08:18:28.621Z,45.31
2023-05-19T08:19:28.750Z,45.32
2023-05-19T08:20:28.636Z,45.25
2023-05-19T08:21:27.772Z,45.22
2023-05-19T08:22:27.738Z,45.26
2023-05-19T08:23:28.799Z,45.19
2023-05-19T08:24:28.851Z,45.19
2023-05-19T08:25:28.904Z,45.19
2023-05-19T08:26:27.974Z,45.24
2023-05-19T08:27:29.252Z,45.20
2023-05-19T08:28:28.170Z,45.19
2023-05-19T08:29:28.219Z,45.15
2023-05-19T08:30:28.342Z,45.13
2023-05-19T08:31:29.318Z,45.14
2023-05-19T08:32:29.376Z,45.13
2023-05-19T08:33:28.428Z,45.13
2023-05-19T08:34:29.684Z,45.14
2023-05-19T08:35:29.578Z,45.10
2023-05-19T08:36:29.589Z,45.12
2023-05-19T08:37:28.643Z,45.10
2023-05-19T08:38:28.726Z,45.11
2023-05-19T08:39:29.905Z,45.05
2023-05-19T08:40:29.916Z,45.04
2023-05-19T08:41:29.919Z,45.06
2023-05-19T08:42:30.108Z,45.04
2023-05-19T08:43:30.032Z,45.04
2023-05-19T08:44:30.088Z,45.03
2023-05-19T08:45:29.120Z,45.01
2023-05-19T08:46:30.212Z,44.96
2023-05-19T08:47:30.317Z,44.95
2023-05-19T08:48:29.280Z,44.94
2023-05-19T08:49:30.428Z,44.96
2023-05-19T08:50:29.438Z,44.95
2023-05-19T08:51:30.463Z,44.92
2023-05-19T08:52:29.506Z,44.87
2023-05-19T08:53:34.304Z,44.85
2023-05-19T08:54:30.537Z,44.81
2023-05-19T08:55:30.631Z,44.76
2023-05-19T08:56:29.561Z,44.74
2023-05-19T08:57:30.548Z,44.79
2023-05-19T08:58:29.520Z,44.78
2023-05-19T08:59:29.522Z,44.82
2023-05-19T09:00:30.896Z,44.81
2023-05-19T09:01:30.648Z,44.79
2023-05-19T09:02:30.566Z,44.83
2023-05-19T09:03:29.651Z,44.80
2023-05-19T09:04:30.656Z,44.77
2023-05-19T09:05:29.541Z,44.77
2023-05-19T09:06:30.574Z,44.74
2023-05-19T09:07:29.586Z,44.72
2023-05-19T09:08:29.606Z,44.69
2023-05-19T09:09:30.633Z,44.73
2023-05-19T09:10:29.780Z,44.73
2023-05-19T09:11:30.671Z,44.68
2023-05-19T09:12:29.694Z,44.64
2023-05-19T09:13:29.913Z,44.61
2023-05-19T09:14:29.759Z,44.62
2023-05-19T09:15:29.807Z,44.57
2023-05-19T09:16:30.988Z,44.55
2023-05-19T09:17:30.867Z,44.56
2023-05-19T09:18:30.818Z,44.52
2023-05-19T09:19:30.151Z,44.48
2023-05-19T09:20:30.862Z,44.49
2023-05-19T09:21:29.993Z,44.45
2023-05-19T09:22:29.903Z,44.44
2023-05-19T09:23:30.928Z,44.44
2023-05-19T09:24:29.915Z,44.38
2023-05-19T09:25:29.902Z,44.41
2023-05-19T09:26:30.928Z,44.37
2023-05-19T09:27:30.940Z,44.36
2023-05-19T09:28:30.985Z,44.33
2023-05-19T09:29:30.946Z,44.32
2023-05-19T09:30:29.983Z,44.31
2023-05-19T09:31:29.959Z,44.28
2023-05-19T09:32:30.982Z,44.26
2023-05-19T09:33:29.967Z,44.27
2023-05-19T09:34:30.985Z,44.28
2023-05-19T09:35:30.075Z,44.22
2023-05-19T09:36:29.923Z,44.19
2023-05-19T09:37:30.938Z,44.19
2023-05-19T09:38:30.944Z,44.18
2023-05-19T09:39:31.101Z,44.18
2023-05-19T09:40:30.917Z,44.17
2023-05-19T09:41:30.981Z,44.17
2023-05-19T09:42:29.996Z,44.16
2023-05-19T09:43:29.969Z,44.15
2023-05-19T09:44:31.016Z,44.05
2023-05-19T09:45:31.338Z,44.09
2023-05-19T09:46:31.200Z,44.11
2023-05-19T09:47:30.120Z,44.09
2023-05-19T09:48:30.107Z,44.05
2023-05-19T09:49:30.153Z,44.02
2023-05-19T09:50:30.494Z,43.99
2023-05-19T09:51:30.335Z,44.00
2023-05-19T09:52:30.297Z,44.03
2023-05-19T09:53:30.321Z,43.92
2023-05-19T09:54:31.366Z,43.99
2023-05-19T09:55:31.562Z,43.97
2023-05-19T09:56:31.561Z,43.93
2023-05-19T09:57:30.506Z,43.90
2023-05-19T09:58:30.618Z,43.96
2023-05-19T09:59:32.999Z,43.95
2023-05-19T10:00:31.763Z,43.96
2023-05-19T10:01:31.660Z,43.94
2023-05-19T10:02:30.639Z,43.85
2023-05-19T10:03:31.648Z,43.92
2023-05-19T10:04:30.617Z,43.92
2023-05-19T10:05:31.758Z,43.93
2023-05-19T10:06:30.806Z,43.88
2023-05-19T10:07:31.560Z,43.90
2023-05-19T10:08:30.923Z,43.88
2023-05-19T10:09:31.540Z,43.90
2023-05-19T10:10:30.568Z,43.91
2023-05-19T10:11:31.539Z,43.90
2023-05-19T10:12:31.544Z,43.90
2023-05-19T10:13:31.546Z,43.85
2023-05-19T10:14:31.512Z,43.89
2023-05-19T10:15:30.882Z,43.87
2023-05-19T10:16:31.518Z,43.93
2023-05-19T10:17:30.532Z,43.87
2023-05-19T10:18:30.510Z,43.87
2023-05-19T10:19:30.867Z,43.82
2023-05-19T10:20:31.693Z,43.87
2023-05-19T10:21:30.583Z,43.85
2023-05-19T10:22:31.656Z,43.83
2023-05-19T10:23:30.712Z,43.83
2023-05-19T10:24:31.787Z,43.85
2023-05-19T10:25:31.035Z,43.81
2023-05-19T10:26:30.927Z,43.79
2023-05-19T10:27:32.039Z,43.83
2023-05-19T10:28:31.996Z,43.82
2023-05-19T10:29:32.013Z,43.83
2023-05-19T10:30:32.064Z,43.82
2023-05-19T10:31:32.216Z,43.78
2023-05-19T10:32:31.416Z,43.78
2023-05-19T10:33:31.176Z,43.80
2023-05-19T10:34:32.231Z,43.87
2023-05-19T10:35:32.469Z,43.81
2023-05-19T10:36:32.378Z,43.83
2023-05-19T10:37:32.360Z,43.84
2023-05-19T10:38:31.389Z,43.85
2023-05-19T10:39:32.439Z,43.79
2023-05-19T10:40:32.592Z,43.83
2023-05-19T10:41:31.635Z,43.84
2023-05-19T10:42:31.595Z,43.85
2023-05-19T10:43:31.610Z,43.80
2023-05-19T10:44:32.671Z,43.78
2023-05-19T10:45:32.811Z,43.81
2023-05-19T10:46:32.769Z,43.82
2023-05-19T10:47:32.944Z,43.81
2023-05-19T10:48:32.811Z,43.76
2023-05-19T10:49:32.030Z,43.80
2023-05-19T10:50:32.133Z,43.87
2023-05-19T10:51:32.952Z,43.88
2023-05-19T10:52:31.967Z,43.92
2023-05-19T10:53:33.135Z,43.84
2023-05-19T10:54:33.042Z,43.87
2023-05-19T10:55:32.427Z,43.93
2023-05-19T10:56:33.215Z,43.91
2023-05-19T10:57:32.252Z,44.00
2023-05-19T10:58:32.426Z,43.93
2023-05-19T10:59:32.263Z,43.91
2023-05-19T11:00:33.317Z,43.96
2023-05-19T11:01:33.531Z,43.94
2023-05-19T11:02:32.457Z,43.94
2023-05-19T11:03:32.463Z,43.96
2023-05-19T11:04:32.632Z,43.96
2023-05-19T11:05:32.646Z,43.96
2023-05-19T11:06:32.556Z,43.95
2023-05-19T11:07:32.619Z,43.91
2023-05-19T11:08:32.676Z,43.90
2023-05-19T11:09:39.916Z,43.93
2023-05-19T11:10:33.703Z,43.92
2023-05-19T11:11:33.265Z,43.93
2023-05-19T11:12:33.668Z,43.93
2023-05-19T11:13:33.728Z,44.00
2023-05-19T11:14:32.712Z,44.00
2023-05-19T11:15:32.852Z,43.99
2023-05-19T11:16:33.730Z,44.01
2023-05-19T11:17:34.976Z,44.03
2023-05-19T11:18:32.640Z,43.94
2023-05-19T11:19:33.704Z,43.92
2023-05-19T11:20:32.823Z,43.99
2023-05-19T11:21:33.808Z,43.98
2023-05-19T11:22:33.820Z,43.93
2023-05-19T11:23:33.465Z,43.93
2023-05-19T11:24:32.889Z,43.90
2023-05-19T11:25:33.096Z,43.92
2023-05-19T11:26:33.975Z,43.89
2023-05-19T11:27:33.998Z,43.92
2023-05-19T11:28:34.078Z,43.97
2023-05-19T11:29:34.759Z,43.96
2023-05-19T11:30:34.164Z,43.96
2023-05-19T11:31:34.248Z,43.93
2023-05-19T11:32:34.219Z,43.97
2023-05-19T11:33:33.242Z,43.93
2023-05-19T11:34:34.532Z,43.93
2023-05-19T11:35:36.023Z,43.95
2023-05-19T11:36:34.307Z,43.91
2023-05-19T11:37:34.390Z,43.92
2023-05-19T11:38:33.452Z,43.98
2023-05-19T11:39:33.299Z,43.97
2023-05-19T11:40:34.449Z,43.96
2023-05-19T11:41:33.278Z,43.94
2023-05-19T11:42:33.267Z,43.92
2023-05-19T11:43:34.254Z,43.95
2023-05-19T11:44:34.242Z,43.99
2023-05-19T11:45:33.639Z,43.97
2023-05-19T11:46:33.352Z,43.98
2023-05-19T11:47:42.483Z,43.98
2023-05-19T11:48:34.261Z,43.94
2023-05-19T11:49:33.388Z,43.96
2023-05-19T11:50:33.222Z,43.97
2023-05-19T11:51:34.273Z,43.96
2023-05-19T11:52:34.235Z,43.93
2023-05-19T11:53:34.044Z,43.94
2023-05-19T11:54:34.339Z,43.97
2023-05-19T11:55:33.174Z,43.95
2023-05-19T11:56:34.166Z,44.01
2023-05-19T11:57:33.362Z,43.96
2023-05-19T11:58:33.165Z,43.96
2023-05-19T11:59:35.831Z,43.95
2023-05-19T12:00:33.187Z,44.00
2023-05-19T12:01:33.287Z,44.01
2023-05-19T12:02:34.281Z,44.00
2023-05-19T12:03:33.386Z,44.00
2023-05-19T12:04:34.161Z,44.04
2023-05-19T12:05:36.563Z,44.02
2023-05-19T12:06:34.390Z,44.01
2023-05-19T12:07:33.307Z,44.04
2023-05-19T12:08:34.084Z,44.05
2023-05-19T12:09:33.101Z,44.01
2023-05-19T12:10:33.104Z,44.01
2023-05-19T12:11:34.120Z,44.00
2023-05-19T12:12:33.108Z,43.97
2023-05-19T12:13:34.097Z,44.00
2023-05-19T12:14:34.108Z,43.98
2023-05-19T12:15:33.262Z,44.02
2023-05-19T12:16:33.485Z,43.98
2023-05-19T12:17:33.054Z,43.99
2023-05-19T12:18:33.118Z,43.99
2023-05-19T12:19:33.209Z,44.01
2023-05-19T12:20:34.212Z,43.98
2023-05-19T12:21:34.626Z,44.00
2023-05-19T12:22:33.992Z,43.96
2023-05-19T12:23:34.138Z,43.95
2023-05-19T12:24:34.029Z,43.98
2023-05-19T12:25:34.439Z,44.01
2023-05-19T12:26:33.218Z,44.01
2023-05-19T12:27:34.847Z,44.03
2023-05-19T12:28:33.945Z,44.02
2023-05-19T12:29:32.935Z,44.02
2023-05-19T12:30:34.997Z,44.07
2023-05-19T12:31:34.058Z,44.11
2023-05-19T12:32:32.945Z,44.06
2023-05-19T12:33:33.594Z,43.98
2023-05-19T12:34:34.240Z,44.00
2023-05-19T12:35:33.170Z,44.00
2023-05-19T12:36:33.238Z,44.06
2023-05-19T12:37:33.174Z,44.07
2023-05-19T12:38:33.185Z,44.10
2023-05-19T12:39:34.339Z,44.09
2023-05-19T12:40:34.568Z,44.06
2023-05-19T12:41:33.509Z,44.04
2023-05-19T12:42:34.487Z,44.07
2023-05-19T12:43:33.352Z,44.07
2023-05-19T12:44:34.369Z,44.09
2023-05-19T12:45:33.712Z,44.09
2023-05-19T12:46:34.587Z,44.09
2023-05-19T12:47:33.660Z,44.05
2023-05-19T12:48:34.731Z,44.16
2023-05-19T12:49:34.520Z,44.10
2023-05-19T12:50:34.952Z,44.10
2023-05-19T12:51:33.696Z,44.12
2023-05-19T12:52:34.613Z,44.13